Time;durP1;ratioP1;P1;durP2;ratioP2;P2;SDS_P1;SDS_P2;PMS_P1;PMS_P2;Temp;Humidity;BMP_temperature;BMP_pressure;BME280_temperature;BME280_humidity;BME280_pressure;Samples;Min_cycle;Max_cycle;Signal;HPM_P1;HPM_P2
2022/06/08 00:01:29;;;;;;;4.13;2.83;;;;;;;16.18;100.00;99333.97;6214705;22;20008;-83
2022/06/08 00:03:58;;;;;;;3.97;2.60;;;;;;;16.15;100.00;99343.34;6242267;23;20486;-83
2022/06/08 00:06:23;;;;;;;3.72;2.97;;;;;;;16.12;100.00;99365.97;6190669;23;20019;-83
2022/06/08 00:08:49;;;;;;;5.22;3.28;;;;;;;16.10;100.00;99362.88;6242538;23;20092;-83
2022/06/08 00:11:15;;;;;;;4.13;2.85;;;;;;;16.11;100.00;99364.41;6215307;23;20345;-84
2022/06/08 00:13:42;;;;;;;3.30;2.85;;;;;;;16.11;100.00;99367.97;6243637;23;20000;-90
2022/06/08 00:16:08;;;;;;;4.63;3.30;;;;;;;16.09;100.00;99367.72;6243355;23;20506;-89
2022/06/08 00:18:34;;;;;;;3.67;3.17;;;;;;;16.13;100.00;99373.09;6241998;23;20346;-89
2022/06/08 00:21:00;;;;;;;5.15;2.75;;;;;;;16.13;100.00;99361.91;6242800;23;20012;-89
2022/06/08 00:23:25;;;;;;;3.05;2.75;;;;;;;16.13;100.00;99367.50;6215949;23;20078;-91
2022/06/08 00:25:51;;;;;;;4.75;3.30;;;;;;;16.03;100.00;99358.47;6243089;23;20012;-90
2022/06/08 00:28:16;;;;;;;5.80;3.10;;;;;;;16.04;100.00;99367.63;6216227;23;20059;-90
2022/06/08 00:30:42;;;;;;;4.35;3.17;;;;;;;16.05;100.00;99361.56;6215759;23;20516;-89
2022/06/08 00:33:08;;;;;;;4.65;3.65;;;;;;;16.00;100.00;99348.28;6215484;23;20102;-89
2022/06/08 00:35:37;;;;;;;3.72;3.33;;;;;;;15.97;100.00;99343.66;6215424;23;20338;-88
2022/06/08 00:38:02;;;;;;;3.53;3.00;;;;;;;16.00;100.00;99336.31;6215754;23;20036;-89
2022/06/08 00:40:44;;;;;;;5.28;3.22;;;;;;;16.01;100.00;99337.84;6215586;23;20043;-90
2022/06/08 00:43:09;;;;;;;5.75;3.35;;;;;;;15.99;100.00;99334.75;6242806;23;20019;-89
2022/06/08 00:45:36;;;;;;;5.65;3.20;;;;;;;15.94;100.00;99332.66;6241910;23;20008;-91
2022/06/08 00:48:03;;;;;;;4.45;3.30;;;;;;;15.93;100.00;99326.31;6242290;23;20008;-90
2022/06/08 00:50:38;;;;;;;5.15;3.85;;;;;;;15.90;100.00;99332.88;6242385;23;20016;-89
2022/06/08 00:53:03;;;;;;;4.40;3.70;;;;;;;15.89;100.00;99330.59;6215552;23;20027;-89
2022/06/08 00:55:32;;;;;;;5.75;3.67;;;;;;;15.76;100.00;99312.13;6215672;23;20349;-88
2022/06/08 00:58:02;;;;;;;4.90;3.88;;;;;;;15.86;100.00;99321.91;6216151;23;20004;-90
2022/06/08 01:00:30;;;;;;;5.32;3.72;;;;;;;15.85;100.00;99320.38;6216030;23;20016;-88
2022/06/08 01:02:57;;;;;;;3.92;3.53;;;;;;;15.84;100.00;99313.25;6190491;23;20008;-88
2022/06/08 01:05:46;;;;;;;5.93;4.00;;;;;;;15.85;100.00;99298.00;6191945;23;20024;-88
2022/06/08 01:08:17;;;;;;;4.40;4.00;;;;;;;15.84;100.00;99285.28;6215690;23;20012;-88
2022/06/08 01:10:47;;;;;;;4.40;4.00;;;;;;;15.85;100.00;99281.22;6216115;23;20043;-89
2022/06/08 01:13:15;;;;;;;4.35;3.80;;;;;;;15.79;100.00;99269.22;6216509;23;20019;-87
2022/06/08 01:15:41;;;;;;;6.40;3.80;;;;;;;15.83;100.00;99280.94;6190240;23;20016;-88
2022/06/08 01:18:09;;;;;;;3.90;3.50;;;;;;;15.86;100.00;99291.16;6190994;23;20020;-88
2022/06/08 01:20:35;;;;;;;5.55;4.18;;;;;;;15.89;100.00;99274.66;6215045;23;20095;-88
2022/06/08 01:23:02;;;;;;;4.78;3.90;;;;;;;15.91;100.00;99286.09;6215098;23;20015;-87
2022/06/08 01:25:37;;;;;;;4.82;3.80;;;;;;;15.91;100.00;99267.31;6215377;23;20326;-87
2022/06/08 01:28:32;;;;;;;4.10;3.70;;;;;;;15.92;100.00;99268.06;6215577;23;20012;-88
2022/06/08 01:31:01;;;;;;;6.50;4.10;;;;;;;15.86;100.00;99254.03;6188065;23;20012;-87
2022/06/08 01:33:54;;;;;;;4.22;3.83;;;;;;;15.90;100.00;99259.41;6190271;23;20012;-88
2022/06/08 01:36:58;;;;;;;4.93;3.92;;;;;;;15.89;100.00;99260.69;6215763;23;20012;-88
2022/06/08 01:39:32;;;;;;;4.55;3.60;;;;;;;15.89;100.00;99257.88;6236329;22;20083;-88
2022/06/08 01:42:04;;;;;;;5.65;3.70;;;;;;;15.88;100.00;99248.72;6241282;23;20016;-88
2022/06/08 01:45:28;;;;;;;6.32;3.80;;;;;;;15.88;100.00;99259.91;6215610;23;20358;-87
2022/06/08 01:47:41;;;;;;;5.90;3.70;;;;;;;15.83;100.00;99255.78;6242711;23;20026;-88
2022/06/08 01:50:23;;;;;;;3.97;3.58;;;;;;;15.85;100.00;99242.06;6216975;23;20254;-82
2022/06/08 01:53:02;;;;;;;4.20;3.33;;;;;;;15.82;100.00;99240.25;6244311;23;20016;-82
2022/06/08 01:55:58;;;;;;;3.80;3.40;;;;;;;15.80;100.00;99237.19;6192103;23;20063;-82
2022/06/08 01:58:52;;;;;;;5.60;3.67;;;;;;;15.79;100.00;99238.44;6140981;23;20092;-82
2022/06/08 02:01:22;;;;;;;4.38;3.30;;;;;;;15.86;100.00;99249.19;6216818;22;20016;-82
2022/06/08 02:04:30;;;;;;;5.65;3.35;;;;;;;15.87;100.00;99247.16;6215505;23;20024;-82
2022/06/08 02:07:13;;;;;;;3.70;3.03;;;;;;;15.90;100.00;99262.19;6117164;23;20023;-82
2022/06/08 02:10:02;;;;;;;5.00;3.45;;;;;;;15.88;100.00;99261.94;6191563;23;20045;-82
2022/06/08 02:12:31;;;;;;;3.92;3.53;;;;;;;15.88;100.00;99257.09;6191518;23;20039;-82
2022/06/08 02:15:03;;;;;;;4.05;3.22;;;;;;;15.90;100.00;99265.00;6191958;23;20451;-81
2022/06/08 02:17:42;;;;;;;3.85;2.95;;;;;;;15.90;100.00;99259.41;6192518;23;20517;-82
2022/06/08 02:20:12;;;;;;;4.05;3.00;;;;;;;15.89;100.00;99264.25;6191475;23;20039;-81
2022/06/08 02:22:43;;;;;;;5.00;3.30;;;;;;;15.84;100.00;99251.72;6191368;23;20023;-81
2022/06/08 02:25:18;;;;;;;3.50;2.80;;;;;;;15.82;100.00;99270.25;6191823;23;20019;-82
2022/06/08 02:27:50;;;;;;;4.00;2.70;;;;;;;15.91;100.00;99283.31;6191408;23;20019;-82
2022/06/08 02:30:20;;;;;;;3.55;2.88;;;;;;;15.90;100.00;99281.78;6191511;23;20022;-82
2022/06/08 02:36:12;;;;;;;3.30;2.60;;;;;;;15.92;100.00;99276.47;6046253;23;20019;-82
2022/06/08 02:38:40;;;;;;;3.38;2.67;;;;;;;15.91;100.00;99274.91;6211898;23;20016;-81
2022/06/08 02:41:08;;;;;;;4.22;2.67;;;;;;;15.86;100.00;99273.59;6192352;23;20504;-81
2022/06/08 02:43:48;;;;;;;2.63;2.35;;;;;;;15.83;100.00;99255.78;6191985;23;20055;-81
2022/06/08 02:46:28;;;;;;;3.70;2.60;;;;;;;15.78;100.00;99248.09;6193554;23;20020;-81
2022/06/08 02:48:54;;;;;;;2.90;2.42;;;;;;;15.72;100.00;99232.53;6216333;23;20009;-81
2022/06/08 02:51:28;;;;;;;3.53;2.70;;;;;;;15.76;100.00;99259.00;6191576;23;20019;-81
2022/06/08 02:53:58;;;;;;;3.00;2.50;;;;;;;15.75;100.00;99260.28;6190789;23;20016;-81
2022/06/08 02:56:35;;;;;;;2.97;2.38;;;;;;;15.75;100.00;99271.44;6191492;23;20038;-81
2022/06/08 02:59:21;;;;;;;3.47;2.30;;;;;;;15.75;100.00;99293.03;6192801;23;20073;-81
2022/06/08 03:01:53;;;;;;;5.97;2.63;;;;;;;15.74;100.00;99281.09;6191364;23;20012;-82
2022/06/08 03:04:24;;;;;;;4.18;2.20;;;;;;;15.73;100.00;99273.94;6192121;23;20142;-82
2022/06/08 03:06:52;;;;;;;2.80;2.40;;;;;;;15.72;100.00;99277.25;6216314;23;20089;-81
2022/06/08 03:09:19;;;;;;;4.00;2.25;;;;;;;15.70;100.00;99269.34;6192310;23;20091;-81
2022/06/08 03:11:51;;;;;;;3.50;2.45;;;;;;;15.69;100.00;99273.41;6191656;23;20319;-81
2022/06/08 03:14:17;;;;;;;3.33;2.40;;;;;;;15.71;100.00;99286.91;6216233;23;20438;-81
2022/06/08 03:16:59;;;;;;;3.70;2.30;;;;;;;15.70;100.00;99277.75;6243743;23;20331;-81
2022/06/08 03:19:26;;;;;;;4.10;2.30;;;;;;;15.69;100.00;99287.38;6217012;23;20060;-81
2022/06/08 03:21:53;;;;;;;3.38;2.40;;;;;;;15.68;100.00;99283.06;6191347;23;20008;-81
2022/06/08 03:24:19;;;;;;;3.15;2.47;;;;;;;15.67;100.00;99280.75;6243628;23;20099;-81
2022/06/08 03:26:58;;;;;;;3.33;2.20;;;;;;;15.68;100.00;99291.47;6191140;23;20022;-81
2022/06/08 03:29:26;;;;;;;4.25;2.50;;;;;;;15.68;100.00;99301.88;6216736;23;20525;-81
2022/06/08 03:31:54;;;;;;;3.47;2.40;;;;;;;15.66;100.00;99296.75;6216225;23;20004;-81
2022/06/08 03:34:20;;;;;;;2.75;2.40;;;;;;;15.67;100.00;99292.72;6242895;23;20062;-82
2022/06/08 03:36:47;;;;;;;2.90;2.30;;;;;;;15.67;100.00;99311.50;6216012;23;20008;-82
2022/06/08 03:39:14;;;;;;;2.72;2.33;;;;;;;15.68;100.00;99316.63;6215345;23;20454;-82
2022/06/08 03:41:40;;;;;;;3.00;2.45;;;;;;;15.70;100.00;99314.09;6214343;23;20015;-82
2022/06/08 03:44:06;;;;;;;4.38;2.63;;;;;;;15.70;100.00;99327.28;6166432;23;20094;-82
2022/06/08 03:46:35;;;;;;;3.42;2.53;;;;;;;15.69;100.00;99329.31;6190870;23;20377;-82
2022/06/08 03:49:01;;;;;;;3.78;2.60;;;;;;;15.65;100.00;99339.19;6215661;23;20008;-82
2022/06/08 03:51:27;;;;;;;4.18;2.50;;;;;;;15.66;100.00;99344.28;6216020;23;20349;-82
2022/06/08 03:54:01;;;;;;;5.68;3.13;;;;;;;15.60;100.00;99332.28;6242561;23;20112;-83
2022/06/08 03:56:27;;;;;;;4.10;2.40;;;;;;;15.57;100.00;99352.78;6241997;23;20015;-82
2022/06/08 03:58:54;;;;;;;5.60;2.80;;;;;;;15.56;100.00;99368.03;6215864;23;20008;-84
2022/06/08 04:01:22;;;;;;;4.57;2.80;;;;;;;15.54;100.00;99361.38;6214402;22;20022;-84
2022/06/08 04:03:52;;;;;;;2.95;2.65;;;;;;;15.56;100.00;99354.06;6215957;23;20453;-84
2022/06/08 04:06:20;;;;;;;3.72;2.65;;;;;;;15.56;100.00;99354.06;6215195;23;20020;-84
2022/06/08 04:08:46;;;;;;;4.38;2.83;;;;;;;15.51;100.00;99340.00;6189694;23;20008;-84
2022/06/08 04:11:12;;;;;;;5.47;3.00;;;;;;;15.47;100.00;99329.00;6243650;23;20078;-84
2022/06/08 04:13:38;;;;;;;4.68;2.90;;;;;;;15.43;100.00;99294.91;6215767;23;20099;-84
2022/06/08 04:16:09;;;;;;;6.55;3.20;;;;;;;15.45;100.00;99311.94;6215888;23;20008;-84
2022/06/08 04:18:39;;;;;;;4.50;3.10;;;;;;;15.48;100.00;99299.03;6215866;23;20016;-84
2022/06/08 04:21:08;;;;;;;4.00;3.28;;;;;;;15.46;100.00;99305.09;6216707;23;20008;-86
2022/06/08 04:23:54;;;;;;;3.55;3.00;;;;;;;15.46;100.00;99312.72;6173183;23;20347;-84
2022/06/08 04:26:22;;;;;;;6.47;3.20;;;;;;;15.46;100.00;99321.09;6216288;23;20008;-84
2022/06/08 04:28:52;;;;;;;3.63;3.15;;;;;;;15.46;100.00;99312.72;6215854;23;20403;-84
2022/06/08 04:31:20;;;;;;;4.65;2.90;;;;;;;15.45;100.00;99314.72;6216342;23;20016;-84
2022/06/08 04:33:53;;;;;;;6.05;3.10;;;;;;;15.43;100.00;99306.09;6215105;23;20014;-84
2022/06/08 04:36:23;;;;;;;4.57;3.10;;;;;;;15.42;100.00;99307.34;6216591;23;20008;-83
2022/06/08 04:38:49;;;;;;;5.53;3.13;;;;;;;15.39;100.00;99289.53;6215668;23;20019;-83
2022/06/08 04:41:16;;;;;;;4.95;3.42;;;;;;;15.42;100.00;99296.16;6242088;23;20008;-83
2022/06/08 04:43:43;;;;;;;4.65;3.03;;;;;;;15.38;100.00;99292.78;6238828;22;20516;-83
2022/06/08 04:46:15;;;;;;;4.70;3.47;;;;;;;15.38;100.00;99301.19;6212762;23;20406;-83
2022/06/08 04:48:43;;;;;;;5.65;3.60;;;;;;;15.35;100.00;99311.31;6213649;23;20024;-83
2022/06/08 04:51:11;;;;;;;4.18;2.58;;;;;;;15.36;100.00;99298.13;6212746;23;20012;-83
2022/06/08 04:53:41;;;;;;;4.75;3.75;;;;;;;15.38;100.00;99306.78;6213141;23;20024;-84
2022/06/08 04:56:07;;;;;;;6.05;4.32;;;;;;;15.38;100.00;99309.56;6188409;23;20026;-83
2022/06/08 04:58:34;;;;;;;5.05;3.65;;;;;;;15.31;100.00;99309.97;6188608;23;20409;-84
2022/06/08 05:01:00;;;;;;;5.13;3.72;;;;;;;15.38;100.00;99326.34;6188688;23;20025;-83
2022/06/08 05:03:29;;;;;;;6.05;3.42;;;;;;;15.38;100.00;99338.28;6188110;23;20087;-84
2022/06/08 05:05:57;;;;;;;4.93;3.55;;;;;;;15.35;100.00;99333.69;6213506;23;20401;-85
2022/06/08 05:08:28;;;;;;;4.65;3.72;;;;;;;15.37;100.00;99341.56;6213344;23;20008;-82
2022/06/08 05:10:55;;;;;;;6.85;3.90;;;;;;;15.37;100.00;99335.97;6216176;23;20062;-82
2022/06/08 05:13:24;;;;;;;4.32;3.78;;;;;;;15.38;100.00;99329.91;6215922;23;20016;-82
2022/06/08 05:16:04;;;;;;;5.30;3.83;;;;;;;15.37;100.00;99330.38;6191768;23;20016;-82
2022/06/08 05:18:30;;;;;;;4.40;3.83;;;;;;;15.39;100.00;99330.66;6215376;23;20023;-83
2022/06/08 05:20:59;;;;;;;5.65;3.78;;;;;;;15.40;100.00;99335.00;6217066;23;20016;-83
2022/06/08 05:23:32;;;;;;;6.53;4.38;;;;;;;15.39;100.00;99333.47;6216183;23;20613;-84
2022/06/08 05:25:59;;;;;;;5.45;4.00;;;;;;;15.40;100.00;99329.41;6214736;23;20103;-85
2022/06/08 05:28:26;;;;;;;4.88;3.70;;;;;;;15.33;100.00;99336.16;6216499;23;20078;-84
2022/06/08 05:30:56;;;;;;;5.53;4.05;;;;;;;15.32;100.00;99326.28;6193124;23;20457;-87
2022/06/08 05:33:26;;;;;;;6.50;4.10;;;;;;;15.31;100.00;99327.53;6217097;23;20059;-87
2022/06/08 05:35:54;;;;;;;4.93;3.78;;;;;;;15.37;100.00;99324.78;6192576;23;20023;-88
2022/06/08 05:38:20;;;;;;;6.53;3.95;;;;;;;15.22;100.00;99321.28;6192375;23;20039;-88
2022/06/08 05:40:46;;;;;;;5.70;4.10;;;;;;;15.34;100.00;99348.13;6192447;23;20426;-88
2022/06/08 05:43:13;;;;;;;5.28;4.30;;;;;;;15.31;100.00;99349.09;6217745;23;20015;-88
2022/06/08 05:45:45;;;;;;;5.32;4.57;;;;;;;15.37;100.00;99349.94;6217596;23;20023;-85
2022/06/08 05:48:11;;;;;;;7.00;4.40;;;;;;;15.38;100.00;99343.09;6216476;23;20019;-85
2022/06/08 05:50:40;;;;;;;5.68;4.43;;;;;;;15.37;100.00;99355.53;6215214;23;20008;-86
2022/06/08 05:53:09;;;;;;;6.40;4.30;;;;;;;15.41;100.00;99353.28;6214303;23;20111;-85
2022/06/08 05:55:35;;;;;;;7.80;4.38;;;;;;;15.42;100.00;99343.66;6215473;23;20008;-85
2022/06/08 05:58:01;;;;;;;6.00;4.60;;;;;;;15.41;100.00;99334.50;6215269;23;20012;-85
2022/06/08 06:00:33;;;;;;;5.18;4.47;;;;;;;15.39;100.00;99328.66;6215576;23;20019;-86
2022/06/08 06:03:00;;;;;;;6.95;4.50;;;;;;;15.46;100.00;99321.88;6190363;23;20073;-85
2022/06/08 06:05:29;;;;;;;6.60;4.55;;;;;;;15.49;100.00;99326.47;6217878;23;20380;-85
2022/06/08 06:07:58;;;;;;;8.23;5.13;;;;;;;15.52;100.00;99325.56;6217488;23;20019;-85
2022/06/08 06:10:30;;;;;;;5.70;4.40;;;;;;;15.50;100.00;99325.25;6193276;23;19996;-85
2022/06/08 06:12:57;;;;;;;6.30;4.68;;;;;;;15.56;100.00;99328.91;6217267;23;20448;-85
2022/06/08 06:15:34;;;;;;;6.05;4.95;;;;;;;15.60;100.00;99326.69;6217947;23;20051;-86
2022/06/08 06:17:59;;;;;;;5.32;4.80;;;;;;;15.62;100.00;99329.75;6192297;23;20063;-86
2022/06/08 06:20:25;;;;;;;7.30;5.03;;;;;;;15.61;100.00;99328.19;6244816;23;20319;-85
2022/06/08 06:22:58;;;;;;;5.60;5.00;;;;;;;15.61;100.00;99338.63;6217648;23;20026;-86
2022/06/08 06:25:42;;;;;;;7.53;5.63;;;;;;;15.61;100.00;99339.38;6244601;23;20073;-86
2022/06/08 06:28:26;;;;;;;6.43;5.20;;;;;;;15.64;100.00;99354.41;6222180;23;20012;-84
2022/06/08 06:31:47;;;;;;;8.57;6.68;;;;;;;15.66;100.00;99363.84;6242440;23;20389;-81
2022/06/08 06:34:19;;;;;;;7.10;5.80;;;;;;;15.71;100.00;99377.16;6118858;23;20016;-81
2022/06/08 06:36:49;;;;;;;7.93;5.70;;;;;;;15.72;100.00;99377.91;6192605;23;20019;-87
2022/06/08 06:39:15;;;;;;;8.85;5.22;;;;;;;15.73;100.00;99380.19;6216897;23;20020;-86
2022/06/08 06:41:43;;;;;;;8.30;4.93;;;;;;;15.76;100.00;99384.84;6216164;23;20008;-86
2022/06/08 06:44:10;;;;;;;6.85;5.13;;;;;;;15.68;100.00;99364.16;6215366;23;20012;-87
2022/06/08 06:46:41;;;;;;;7.63;5.20;;;;;;;15.71;100.00;99360.38;6214910;23;20027;-86
2022/06/08 06:49:10;;;;;;;5.38;4.72;;;;;;;15.68;100.00;99352.97;6215939;23;20081;-87
2022/06/08 06:51:37;;;;;;;7.70;5.18;;;;;;;15.70;100.00;99358.03;6215269;23;20083;-86
2022/06/08 06:54:05;;;;;;;6.07;5.47;;;;;;;15.68;100.00;99350.16;6214485;23;20106;-87
2022/06/08 06:56:32;;;;;;;6.80;5.30;;;;;;;15.70;100.00;99356.03;6215317;23;20097;-86
2022/06/08 06:59:02;;;;;;;7.82;5.70;;;;;;;15.71;100.00;99354.00;6214837;23;20354;-85
2022/06/08 07:01:29;;;;;;;8.65;5.45;;;;;;;15.68;100.00;99350.16;6215631;23;20311;-86
2022/06/08 07:03:56;;;;;;;7.22;6.30;;;;;;;15.70;100.00;99346.88;6215260;23;20034;-86
2022/06/08 07:06:22;;;;;;;7.25;6.20;;;;;;;15.77;100.00;99352.81;6216258;23;20016;-86
2022/06/08 07:08:47;;;;;;;8.18;6.38;;;;;;;15.83;100.00;99356.47;6243529;23;20012;-86
2022/06/08 07:14:00;;;;;;;8.63;6.50;;;;;;;15.86;100.00;99349.09;6195887;23;20016;-87
2022/06/08 07:16:26;;;;;;;7.88;6.35;;;;;;;15.91;100.00;99342.81;6192681;23;20000;-87
2022/06/08 07:18:53;;;;;;;7.28;6.57;;;;;;;15.98;100.00;99330.44;6216677;23;20465;-86
2022/06/08 07:21:18;;;;;;;7.00;6.18;;;;;;;16.09;100.00;99333.38;6217139;23;20004;-87
2022/06/08 07:23:44;;;;;;;7.13;6.22;;;;;;;16.12;100.00;99321.19;6216876;23;20012;-87
2022/06/08 07:26:10;;;;;;;7.45;6.47;;;;;;;16.19;100.00;99306.75;6243809;23;20087;-87
2022/06/08 07:28:36;;;;;;;8.75;6.30;;;;;;;16.23;100.00;99299.69;6217021;23;20043;-87
2022/06/08 07:31:02;;;;;;;8.48;6.35;;;;;;;16.26;100.00;99286.72;6243813;23;20008;-87
2022/06/08 07:33:28;;;;;;;8.15;6.50;;;;;;;16.37;100.00;99281.25;6191949;23;20469;-88
2022/06/08 07:35:54;;;;;;;7.47;6.68;;;;;;;16.49;100.00;99254.13;6216646;23;20082;-87
2022/06/08 07:38:20;;;;;;;7.50;6.65;;;;;;;16.81;100.00;99246.50;6217080;23;20004;-87
2022/06/08 07:40:45;;;;;;;6.63;6.03;;;;;;;17.05;100.00;99238.53;6244115;23;20015;-87
2022/06/08 07:43:11;;;;;;;6.80;6.10;;;;;;;17.18;100.00;99247.28;6242793;23;20338;-87
2022/06/08 07:45:37;;;;;;;7.53;6.03;;;;;;;17.35;100.00;99255.78;6243832;23;20008;-86
2022/06/08 07:50:47;;;;;;;6.30;5.70;;;;;;;18.05;100.00;99273.38;6243633;23;20118;-87
2022/06/08 07:53:15;;;;;;;7.53;6.00;;;;;;;18.11;100.00;99274.19;6216582;23;20040;-86
2022/06/08 07:55:41;;;;;;;7.30;5.22;;;;;;;18.13;100.00;99280.03;6243719;23;20012;-87
2022/06/08 07:58:07;;;;;;;5.43;4.93;;;;;;;18.10;100.00;99280.28;6216301;23;20434;-87
2022/06/08 08:00:33;;;;;;;8.27;5.32;;;;;;;17.99;100.00;99271.84;6243758;23;20012;-87
2022/06/08 08:02:58;;;;;;;6.38;5.78;;;;;;;17.95;100.00;99285.34;6242914;22;20022;-87
2022/06/08 08:05:24;;;;;;;6.65;5.95;;;;;;;17.92;100.00;99284.31;6243767;23;20435;-86
2022/06/08 08:07:50;;;;;;;8.70;6.03;;;;;;;18.00;100.00;99287.38;6243371;23;20077;-87
2022/06/08 08:10:21;;;;;;;6.90;5.60;;;;;;;18.01;100.00;99272.09;6243434;23;19996;-87
2022/06/08 08:12:47;;;;;;;6.90;5.32;;;;;;;18.03;100.00;99261.16;6216627;23;20008;-86
2022/06/08 08:15:13;;;;;;;6.20;5.60;;;;;;;18.08;100.00;99269.56;6243296;23;20004;-87
2022/06/08 08:17:39;;;;;;;7.25;5.63;;;;;;;18.07;100.00;99278.50;6243593;23;20466;-86
2022/06/08 08:20:05;;;;;;;6.72;5.60;;;;;;;18.06;100.00;99285.38;6243001;23;20023;-86
2022/06/08 08:22:31;;;;;;;7.40;6.50;;;;;;;18.05;100.00;99283.84;6216430;23;20504;-86
2022/06/08 08:24:56;;;;;;;6.90;5.60;;;;;;;18.05;100.00;99284.59;6242839;23;20039;-86
2022/06/08 08:27:22;;;;;;;7.05;5.90;;;;;;;18.04;100.00;99273.88;6243443;23;20034;-86
2022/06/08 08:29:50;;;;;;;7.32;5.70;;;;;;;17.98;100.00;99287.13;6243103;23;20342;-86
2022/06/08 08:32:15;;;;;;;7.10;6.10;;;;;;;17.91;100.00;99284.84;6243432;23;20465;-86
2022/06/08 08:34:41;;;;;;;8.32;6.13;;;;;;;17.83;100.00;99298.59;6243248;23;20012;-86
2022/06/08 08:37:07;;;;;;;6.82;5.47;;;;;;;17.74;100.00;99300.81;6243149;23;19996;-87
2022/06/08 08:39:32;;;;;;;6.95;5.45;;;;;;;17.62;100.00;99294.41;6243542;23;20062;-87
2022/06/08 08:44:44;;;;;;;6.47;5.53;;;;;;;17.47;100.00;99286.13;6220197;23;20008;-87
2022/06/08 08:47:32;;;;;;;6.35;5.70;;;;;;;17.51;100.00;99303.47;6216900;23;20015;-87
2022/06/08 08:50:05;;;;;;;6.90;5.00;;;;;;;17.46;100.00;99297.88;6216121;23;20058;-87
2022/06/08 08:52:46;;;;;;;6.10;5.55;;;;;;;17.49;100.00;99300.44;6216550;23;20019;-87
2022/06/08 08:55:27;;;;;;;7.03;6.32;;;;;;;17.52;100.00;99309.88;6193200;23;20020;-86
2022/06/08 08:58:14;;;;;;;6.57;5.85;;;;;;;17.47;100.00;99299.41;6218513;23;20040;-86
2022/06/08 09:00:43;;;;;;;6.68;5.97;;;;;;;17.46;100.00;99304.25;6218817;23;20484;-86
2022/06/08 09:03:39;;;;;;;8.07;5.90;;;;;;;17.44;100.00;99303.19;6217942;23;20024;-86
2022/06/08 09:06:24;;;;;;;7.38;6.60;;;;;;;17.45;100.00;99297.09;6193132;23;20465;-87
2022/06/08 09:08:54;;;;;;;7.47;6.40;;;;;;;17.43;100.00;99308.03;6218000;23;20015;-86
2022/06/08 09:11:25;;;;;;;7.13;6.43;;;;;;;17.45;100.00;99304.72;6245350;23;20008;-86
2022/06/08 09:13:57;;;;;;;6.68;6.07;;;;;;;17.47;100.00;99302.94;6217874;23;20044;-86
2022/06/08 09:16:39;;;;;;;7.00;6.30;;;;;;;17.45;100.00;99304.72;6245010;23;20066;-86
2022/06/08 09:19:29;;;;;;;7.25;6.47;;;;;;;17.44;100.00;99303.19;6218301;23;20012;-86
2022/06/08 09:21:59;;;;;;;7.22;6.53;;;;;;;17.36;100.00;99302.91;6245260;23;20089;-87
2022/06/08 09:24:32;;;;;;;7.38;6.68;;;;;;;17.41;100.00;99301.41;6244928;23;20130;-87
2022/06/08 09:27:23;;;;;;;8.43;6.57;;;;;;;17.49;100.00;99310.88;6218394;23;20150;-86
2022/06/08 09:29:49;;;;;;;6.88;6.18;;;;;;;17.50;100.00;99310.38;6218541;23;20085;-86
2022/06/08 09:32:41;;;;;;;9.18;6.70;;;;;;;17.50;100.00;99316.00;6245215;23;20089;-87
2022/06/08 09:35:26;;;;;;;7.30;6.60;;;;;;;17.49;100.00;99311.66;6244976;23;20012;-87
2022/06/08 09:37:54;;;;;;;6.97;5.97;;;;;;;17.49;100.00;99306.03;6245355;23;20019;-86
2022/06/08 09:40:40;;;;;;;10.45;9.15;;;;;;;17.61;100.00;99315.31;6244785;23;20012;-86
2022/06/08 09:43:33;;;;;;;7.97;7.13;;;;;;;17.63;100.00;99315.59;6244644;23;20008;-86
2022/06/08 09:46:09;;;;;;;7.60;6.80;;;;;;;17.69;100.00;99314.31;6244814;23;20012;-87
2022/06/08 09:51:53;;;;;;;8.07;7.18;;;;;;;17.68;100.00;99306.41;6196817;23;20016;-87
2022/06/08 09:54:33;;;;;;;7.70;6.90;;;;;;;17.75;100.00;99310.78;6244537;23;20023;-86
2022/06/08 09:57:24;;;;;;;8.77;7.53;;;;;;;17.79;100.00;99300.09;6217965;23;20016;-85
2022/06/08 10:00:04;;;;;;;7.93;7.03;;;;;;;17.79;100.00;99311.31;6169680;23;20027;-86
2022/06/08 10:03:00;;;;;;;8.02;7.22;;;;;;;17.80;100.00;99307.22;6244288;22;20024;-85
2022/06/08 10:05:36;;;;;;;7.97;7.18;;;;;;;17.70;100.00;99298.28;6244167;23;20012;-86
2022/06/08 10:08:22;;;;;;;7.95;6.80;;;;;;;17.75;100.00;99305.19;6244773;23;20012;-85
2022/06/08 10:13:55;;;;;;;8.32;7.30;;;;;;;17.67;100.00;99300.03;6244060;23;20022;-85
2022/06/08 10:16:23;;;;;;;8.80;6.78;;;;;;;17.67;100.00;99304.88;6217642;23;20024;-85
2022/06/08 10:18:51;;;;;;;7.60;6.90;;;;;;;17.62;100.00;99286.75;6244492;23;20069;-85
2022/06/08 10:21:23;;;;;;;8.30;7.07;;;;;;;17.63;100.00;99296.69;6217910;23;20023;-84
2022/06/08 10:23:59;;;;;;;7.53;6.82;;;;;;;17.57;100.00;99287.50;6217728;23;20015;-85
2022/06/08 10:26:30;;;;;;;8.80;7.63;;;;;;;17.52;100.00;99285.41;6217826;23;20023;-86
2022/06/08 10:29:21;;;;;;;9.93;8.23;;;;;;;17.56;100.00;99285.16;6217851;23;20019;-85
2022/06/08 10:32:12;;;;;;;8.73;7.88;;;;;;;17.53;100.00;99289.75;6175866;23;20027;-86
2022/06/08 10:34:38;;;;;;;9.32;7.82;;;;;;;17.51;100.00;99292.28;6226997;23;20046;-86
2022/06/08 10:37:37;;;;;;;9.35;8.32;;;;;;;17.49;100.00;99289.22;6217583;23;20014;-88
2022/06/08 10:40:23;;;;;;;9.73;8.57;;;;;;;17.48;100.00;99289.72;6204776;23;20323;-87
2022/06/08 10:42:50;;;;;;;9.40;8.30;;;;;;;17.47;100.00;99283.31;6217932;23;20016;-87
2022/06/08 10:45:29;;;;;;;9.60;8.15;;;;;;;17.57;100.00;99295.91;6244192;23;20365;-87
2022/06/08 10:48:23;;;;;;;9.50;8.60;;;;;;;17.50;100.00;99278.78;6217301;23;20394;-88
2022/06/08 10:51:21;;;;;;;9.65;8.75;;;;;;;17.59;100.00;99290.56;6244495;23;20062;-87
2022/06/08 10:56:33;;;;;;;9.95;8.65;;;;;;;17.59;100.00;99284.19;6242237;23;20473;-88
2022/06/08 10:59:12;;;;;;;10.48;8.90;;;;;;;17.64;100.00;99278.59;6215588;23;20008;-88
2022/06/08 11:01:54;;;;;;;10.93;9.35;;;;;;;17.61;100.00;99276.81;6243141;22;20019;-87
2022/06/08 11:04:38;;;;;;;14.45;12.95;;;;;;;17.68;100.00;99281.94;6242638;23;20012;-88
2022/06/08 11:07:11;;;;;;;10.25;9.27;;;;;;;17.60;100.00;99275.28;6242520;23;20046;-88
2022/06/08 11:09:45;;;;;;;10.88;8.98;;;;;;;17.65;100.00;99270.97;6216144;23;20059;-88
2022/06/08 11:12:10;;;;;;;9.73;8.75;;;;;;;17.71;100.00;99272.50;6243461;23;20517;-88
2022/06/08 11:14:48;;;;;;;9.82;8.90;;;;;;;17.71;100.00;99272.50;6243427;23;20422;-88
2022/06/08 11:17:28;;;;;;;10.27;9.27;;;;;;;17.80;100.00;99274.31;6243600;23;20008;-88
2022/06/08 11:19:59;;;;;;;9.25;8.35;;;;;;;17.82;100.00;99260.56;6243347;23;20023;-88
2022/06/08 11:22:45;;;;;;;9.93;8.38;;;;;;;17.85;100.00;99264.41;6217538;23;20016;-89
2022/06/08 11:25:18;;;;;;;9.73;8.73;;;;;;;17.92;100.00;99270.28;6243326;23;20016;-88
2022/06/08 11:27:44;;;;;;;14.45;9.10;;;;;;;17.94;100.00;99255.75;6213227;23;20446;-89
2022/06/08 11:30:22;;;;;;;9.75;8.75;;;;;;;17.97;100.00;99257.53;6240962;22;20020;-88
2022/06/08 11:32:50;;;;;;;11.65;10.05;;;;;;;17.99;100.00;99247.38;6213844;23;20016;-88
2022/06/08 11:35:28;;;;;;;8.90;8.00;;;;;;;18.04;100.00;99245.81;6240355;22;20016;-89
2022/06/08 11:38:06;;;;;;;8.95;8.00;;;;;;;18.03;100.00;99225.44;6242407;23;20044;-88
2022/06/08 11:40:34;;;;;;;9.07;8.23;;;;;;;18.11;100.00;99236.91;6190917;23;20019;-88
2022/06/08 11:43:13;;;;;;;9.68;8.30;;;;;;;18.07;100.00;99251.22;6241958;23;20000;-89
2022/06/08 11:45:44;;;;;;;9.43;8.52;;;;;;;18.13;100.00;99240.75;6245247;23;20174;-88
2022/06/08 11:48:16;;;;;;;9.48;8.57;;;;;;;18.12;100.00;99241.25;6245234;23;20545;-88
2022/06/08 11:50:46;;;;;;;9.13;8.23;;;;;;;18.21;100.00;99243.81;6191161;23;20012;-88
2022/06/08 11:53:18;;;;;;;9.43;8.43;;;;;;;18.31;100.00;99244.34;6192502;23;20004;-88
2022/06/08 11:55:56;;;;;;;8.80;7.78;;;;;;;18.34;100.00;99244.09;6244263;23;20008;-89
2022/06/08 11:58:27;;;;;;;9.52;8.63;;;;;;;18.37;100.00;99231.84;6243775;23;20460;-89
2022/06/08 12:00:57;;;;;;;9.80;8.52;;;;;;;18.33;100.00;99242.56;6215251;23;20016;-82
2022/06/08 12:03:42;;;;;;;8.20;7.40;;;;;;;18.37;100.00;99247.91;6241995;22;20008;-82
2022/06/08 12:06:30;;;;;;;9.23;8.15;;;;;;;18.35;100.00;99240.00;6242565;23;20016;-82
2022/06/08 12:08:55;;;;;;;10.40;9.38;;;;;;;18.44;100.00;99245.34;6214096;23;20016;-82